Time;durP1;ratioP1;P1;durP2;ratioP2;P2;SDS_P1;SDS_P2;PMS_P1;PMS_P2;Temp;Humidity;BMP_temperature;BMP_pressure;BME280_temperature;BME280_humidity;BME280_pressure;Samples;Min_cycle;Max_cycle;Signal;HPM_P1;HPM_P2
2021/11/23 00:00:37;;;;;;;2.53;1.50;;;20.40;45.20;;;24.05;30.39;102253.53;5094788;28;20036;-45
2021/11/23 00:03:05;;;;;;;2.50;1.42;;;20.40;45.20;;;24.03;30.38;102252.75;5076556;28;20056;-47
2021/11/23 00:05:32;;;;;;;2.47;1.27;;;20.40;45.10;;;24.04;30.21;102244.66;5094817;28;20054;-45
2021/11/23 00:07:57;;;;;;;1.92;1.40;;;20.40;45.20;;;24.02;30.31;102245.66;5094795;28;20048;-46
2021/11/23 00:10:25;;;;;;;2.25;1.33;;;20.40;45.20;;;24.04;30.36;102257.16;5093634;28;20373;-45
2021/11/23 00:12:50;;;;;;;2.33;1.45;;;20.40;45.20;;;24.01;30.45;102251.97;5094692;28;20052;-45
2021/11/23 00:15:16;;;;;;;1.20;1.10;;;20.30;45.10;;;24.02;30.42;102261.69;5094588;28;20560;-50
2021/11/23 00:17:42;;;;;;;1.20;1.10;;;20.30;45.10;;;24.04;30.29;102263.34;5094881;28;20475;-45
2021/11/23 00:20:09;;;;;;;1.38;1.20;;;20.30;45.20;;;24.03;30.20;102269.63;5094640;28;20047;-44
2021/11/23 00:22:36;;;;;;;1.60;1.20;;;20.30;45.10;;;24.03;30.22;102280.31;5094643;28;20132;-46
2021/11/23 00:25:04;;;;;;;1.25;1.08;;;20.30;45.10;;;24.02;30.44;102273.25;5094484;28;20044;-45
2021/11/23 00:27:31;;;;;;;1.83;1.40;;;20.30;45.20;;;23.99;30.26;102265.41;5095010;28;20395;-45
2021/11/23 00:29:56;;;;;;;1.40;1.25;;;20.30;45.10;;;24.00;30.40;102272.47;5076187;28;20047;-44
2021/11/23 00:32:22;;;;;;;2.22;1.42;;;20.40;45.20;;;23.99;30.27;102265.41;5094497;28;20411;-44
2021/11/23 00:34:48;;;;;;;2.05;1.50;;;20.40;45.20;;;24.03;30.50;102266.09;5094645;28;20095;-45
2021/11/23 00:37:15;;;;;;;1.63;1.33;;;20.30;45.20;;;24.01;30.33;102265.31;5094228;28;20135;-45
2021/11/23 00:39:41;;;;;;;1.65;1.42;;;20.30;45.10;;;23.99;30.44;102262.75;5094182;28;20056;-44
2021/11/23 00:42:07;;;;;;;1.80;1.23;;;20.30;45.10;;;23.99;30.23;102257.38;5076377;28;20106;-43
2021/11/23 00:44:33;;;;;;;1.50;1.40;;;20.30;45.20;;;23.99;30.30;102256.50;5094174;28;20040;-45
2021/11/23 00:46:59;;;;;;;2.17;1.20;;;20.30;45.20;;;24.01;30.43;102270.66;5094105;28;20043;-45
2021/11/23 00:49:25;;;;;;;1.55;1.17;;;20.30;45.20;;;23.98;30.27;102265.47;5094016;28;20135;-43
2021/11/23 00:51:51;;;;;;;1.88;1.40;;;20.30;45.20;;;23.98;30.28;102255.66;5094368;28;20403;-44
2021/11/23 00:54:16;;;;;;;1.60;1.50;;;20.30;45.10;;;24.00;30.55;102263.59;5094307;28;20040;-44
2021/11/23 00:56:44;;;;;;;1.50;1.40;;;20.30;45.10;;;24.00;30.57;102260.91;5093970;28;20051;-44
2021/11/23 00:59:10;;;;;;;2.25;1.73;;;20.30;45.20;;;23.98;30.31;102258.31;5093863;28;20059;-44
2021/11/23 01:01:36;;;;;;;1.10;1.00;;;20.30;45.10;;;23.97;30.49;102250.38;5093874;28;20051;-45
2021/11/23 01:04:02;;;;;;;2.25;1.33;;;20.30;45.10;;;24.02;30.35;102264.38;5093861;28;20480;-44
2021/11/23 01:06:28;;;;;;;1.30;1.20;;;20.30;45.10;;;23.99;30.24;102251.16;5093842;28;20055;-44
2021/11/23 01:08:53;;;;;;;1.67;1.40;;;20.30;45.10;;;23.98;30.41;102244.97;5093517;28;20488;-44
2021/11/23 01:11:20;;;;;;;2.45;1.30;;;20.30;45.10;;;24.00;30.34;102236.88;5093727;28;20051;-44
2021/11/23 01:13:48;;;;;;;1.30;1.20;;;20.30;45.10;;;23.99;30.46;102245.81;5093788;28;20040;-46
2021/11/23 01:16:16;;;;;;;2.05;1.25;;;20.30;45.20;;;23.98;30.53;102247.63;5093710;28;20141;-45
2021/11/23 01:18:43;;;;;;;1.60;1.42;;;20.30;45.20;;;23.98;30.37;102258.31;5093880;28;20048;-45
2021/11/23 01:21:12;;;;;;;1.80;1.48;;;20.30;45.10;;;24.00;30.24;102260.91;5093540;28;20075;-44
2021/11/23 01:23:38;;;;;;;1.25;1.15;;;20.30;45.10;;;24.01;30.54;102265.31;5093578;28;20489;-47
2021/11/23 01:26:04;;;;;;;1.30;1.20;;;20.40;45.20;;;24.01;30.39;102271.53;5093456;28;20056;-47
2021/11/23 01:28:31;;;;;;;1.63;1.20;;;20.30;45.10;;;24.00;30.36;102263.59;5093790;28;20054;-44
2021/11/23 01:30:57;;;;;;;1.45;1.15;;;20.30;45.10;;;24.02;30.51;102269.72;5093629;28;20052;-45
2021/11/23 01:33:24;;;;;;;1.27;1.17;;;20.30;45.10;;;24.01;30.35;102260.00;5093405;28;20056;-45
2021/11/23 01:35:50;;;;;;;1.65;1.00;;;20.40;45.20;;;24.00;30.24;102256.44;5093053;28;20101;-44
2021/11/23 01:38:16;;;;;;;1.42;1.20;;;20.30;45.10;;;24.01;30.39;102252.81;5093432;28;20044;-45
2021/11/23 01:40:43;;;;;;;2.03;1.58;;;20.40;45.10;;;24.02;30.41;102259.91;5093311;28;20054;-44
2021/11/23 01:43:09;;;;;;;1.58;1.30;;;20.30;45.10;;;24.02;30.43;102264.38;5093323;28;20109;-45
2021/11/23 01:45:38;;;;;;;2.03;1.48;;;20.30;45.10;;;24.01;30.44;102254.63;5093130;28;20040;-49
2021/11/23 01:48:06;;;;;;;1.23;1.10;;;20.30;45.10;;;24.00;30.45;102240.41;5093210;28;20048;-48
2021/11/23 01:50:34;;;;;;;1.50;1.30;;;20.30;45.10;;;23.97;30.40;102245.94;5092860;28;20052;-45
2021/11/23 01:53:04;;;;;;;1.23;1.13;;;20.30;45.10;;;23.99;30.34;102248.50;5093059;28;20056;-49
2021/11/23 01:55:33;;;;;;;1.83;1.40;;;20.30;45.10;;;23.98;30.45;102239.63;5093019;28;20040;-47
2021/11/23 01:58:01;;;;;;;2.13;1.40;;;20.30;45.10;;;24.00;30.33;102243.06;5093235;28;20048;-48
2021/11/23 02:00:27;;;;;;;1.25;1.10;;;20.30;45.10;;;24.00;30.14;102236.88;5093428;28;20494;-45
2021/11/23 02:02:53;;;;;;;1.20;1.10;;;20.30;45.10;;;23.99;30.33;102235.13;5093290;28;20075;-46
2021/11/23 02:05:18;;;;;;;1.58;1.38;;;20.30;45.10;;;24.00;30.34;102240.41;5092905;28;20396;-47
2021/11/23 02:07:44;;;;;;;2.25;1.23;;;20.40;45.10;;;24.00;30.44;102244.88;5092818;28;20488;-50
2021/11/23 02:10:11;;;;;;;2.08;1.20;;;20.30;45.60;;;24.01;30.43;102254.63;5074702;28;20511;-44
2021/11/23 02:12:38;;;;;;;2.47;1.35;;;20.40;45.10;;;23.96;30.49;102244.19;5092845;28;20056;-48
2021/11/23 02:15:07;;;;;;;1.25;1.15;;;20.30;45.10;;;24.00;30.53;102250.22;5093104;28;20043;-45
2021/11/23 02:17:34;;;;;;;1.30;1.20;;;20.30;45.10;;;23.99;30.48;102251.16;5092692;28;20056;-45
2021/11/23 02:20:02;;;;;;;1.55;1.20;;;20.30;45.10;;;23.96;30.23;102241.53;5092403;28;20063;-45
2021/11/23 02:22:28;;;;;;;1.35;1.20;;;20.40;45.10;;;24.00;30.58;102244.88;5092571;28;20493;-48
2021/11/23 02:24:54;;;;;;;1.00;0.88;;;20.30;45.10;;;23.97;30.49;102251.28;5092607;28;20056;-44
2021/11/23 02:27:21;;;;;;;1.20;1.10;;;20.30;45.10;;;23.94;30.35;102243.41;5092596;28;20054;-46
2021/11/23 02:29:47;;;;;;;1.80;1.48;;;20.30;45.10;;;23.98;30.31;102246.78;5092595;28;20078;-44
2021/11/23 02:32:13;;;;;;;1.77;1.33;;;20.30;45.10;;;23.98;30.38;102249.47;5092622;28;20044;-44
2021/11/23 02:34:38;;;;;;;1.88;1.30;;;20.30;45.10;;;23.95;30.35;102238.94;5095632;28;20043;-47
2021/11/23 02:37:04;;;;;;;2.03;1.50;;;20.30;45.10;;;23.97;30.42;102240.59;5096353;28;20137;-46
2021/11/23 02:39:30;;;;;;;1.23;1.13;;;20.30;45.10;;;23.96;30.27;102236.19;5096309;28;20048;-46
2021/11/23 02:41:56;;;;;;;1.20;1.10;;;20.30;45.10;;;23.96;30.68;102243.34;5095947;28;20043;-47
2021/11/23 02:44:22;;;;;;;1.52;1.15;;;20.30;45.20;;;23.94;30.34;102237.19;5096093;28;20533;-48
2021/11/23 02:46:48;;;;;;;2.03;1.52;;;20.30;45.20;;;23.96;30.46;102246.00;5095979;28;20047;-46
2021/11/23 02:49:14;;;;;;;1.30;1.10;;;20.30;45.20;;;23.92;30.48;102234.59;5095917;28;20078;-45
2021/11/23 02:51:41;;;;;;;1.40;1.20;;;20.30;45.20;;;23.91;30.39;102226.69;5095873;28;20559;-45
2021/11/23 02:54:08;;;;;;;1.70;1.27;;;20.30;45.20;;;23.91;30.40;102226.69;5095931;28;20048;-45
2021/11/23 02:56:35;;;;;;;1.25;1.15;;;20.30;45.20;;;23.93;30.56;102227.47;5096119;28;20048;-45
2021/11/23 02:59:01;;;;;;;1.00;0.95;;;20.30;45.10;;;23.92;30.40;102221.25;5095615;28;20052;-45
2021/11/23 03:01:28;;;;;;;1.10;1.00;;;20.30;45.20;;;23.94;30.40;102222.03;5095714;28;20052;-47
2021/11/23 03:03:55;;;;;;;1.05;0.95;;;20.30;45.20;;;23.95;30.61;102222.91;5095671;28;20113;-45
2021/11/23 03:06:22;;;;;;;1.80;1.30;;;20.30;45.10;;;23.95;30.47;102222.91;5095744;28;20087;-45
2021/11/23 03:08:51;;;;;;;1.60;1.30;;;20.30;45.20;;;23.92;30.64;102215.91;5095441;28;20055;-44
2021/11/23 03:11:21;;;;;;;1.50;1.10;;;20.30;45.20;;;23.94;30.45;102221.16;5077502;28;20048;-44
2021/11/23 03:13:46;;;;;;;1.45;1.30;;;20.30;45.20;;;23.94;30.60;102229.19;5095843;28;20479;-45
2021/11/23 03:16:12;;;;;;;2.38;1.50;;;20.30;45.20;;;23.96;30.28;102225.50;5095435;28;20078;-48
2021/11/23 03:18:39;;;;;;;1.50;1.27;;;20.30;45.10;;;23.97;30.30;102219.22;5095428;28;20135;-46
2021/11/23 03:21:06;;;;;;;1.90;1.38;;;20.30;45.10;;;23.98;30.48;102223.59;5095172;28;20109;-44
2021/11/23 03:23:33;;;;;;;1.90;1.20;;;20.30;45.00;;;23.99;30.26;102213.75;5095426;28;20133;-45
2021/11/23 03:26:00;;;;;;;1.85;1.20;;;20.40;45.10;;;23.98;30.38;102210.22;5095374;28;20052;-46
2021/11/23 03:28:27;;;;;;;1.55;1.33;;;20.40;45.10;;;23.99;30.45;102209.31;5095310;28;20503;-43
2021/11/23 03:30:53;;;;;;;1.15;1.00;;;20.40;45.00;;;24.02;30.43;102210.94;5095116;28;20048;-44
2021/11/23 03:33:19;;;;;;;1.05;0.95;;;20.40;45.00;;;23.99;30.32;102203.06;5095154;28;20563;-44
2021/11/23 03:35:46;;;;;;;2.67;1.42;;;20.40;45.00;;;24.02;30.58;102201.13;5095112;28;20048;-44
2021/11/23 03:38:14;;;;;;;1.40;0.90;;;20.40;45.00;;;24.07;30.53;102208.00;5095393;28;20051;-46
2021/11/23 03:40:42;;;;;;;1.05;0.90;;;20.40;44.90;;;24.07;30.47;102206.19;5095025;28;20123;-44
2021/11/23 03:43:10;;;;;;;1.52;1.17;;;20.40;44.80;;;24.09;30.38;102211.47;5094887;28;20515;-45
2021/11/23 03:45:36;;;;;;;1.10;1.00;;;20.50;44.80;;;24.08;30.41;102204.41;5094873;28;20060;-46
2021/11/23 03:48:03;;;;;;;1.42;1.30;;;20.50;44.80;;;24.12;30.38;102209.47;5094736;28;20059;-46
2021/11/23 03:50:30;;;;;;;1.20;1.10;;;20.50;44.80;;;24.10;30.45;102205.19;5095193;28;20048;-46
2021/11/23 03:52:57;;;;;;;1.05;0.95;;;20.50;44.80;;;24.14;30.17;102206.72;5095123;28;20052;-45
2021/11/23 03:55:25;;;;;;;0.80;0.80;;;20.60;44.70;;;24.13;30.49;102207.69;5094948;28;20056;-48
2021/11/23 03:57:52;;;;;;;1.40;1.30;;;20.60;44.60;;;24.12;30.38;102190.78;5094813;28;20403;-47
2021/11/23 04:00:22;;;;;;;1.17;1.08;;;20.60;44.60;;;24.17;30.26;102194.09;5094990;28;20375;-48
2021/11/23 04:02:49;;;;;;;1.13;1.10;;;20.60;44.60;;;24.15;30.37;102176.41;5094713;28;20092;-47
2021/11/23 04:05:16;;;;;;;1.30;1.10;;;20.60;44.60;;;24.16;30.31;102191.50;5094869;28;20048;-51
2021/11/23 04:07:43;;;;;;;1.27;1.10;;;20.60;44.50;;;24.19;30.41;102202.88;5094702;28;20044;-46
2021/11/23 04:10:12;;;;;;;1.20;1.02;;;20.70;44.50;;;24.23;30.16;102203.56;5094634;28;20051;-45
2021/11/23 04:12:38;;;;;;;1.13;1.02;;;20.70;44.50;;;24.22;30.29;102207.19;5094645;28;20567;-46
2021/11/23 04:15:06;;;;;;;1.15;1.02;;;20.70;44.50;;;24.25;30.13;102201.66;5094659;28;20052;-45
2021/11/23 04:17:33;;;;;;;1.20;1.10;;;20.70;44.40;;;24.25;30.13;102200.81;5094660;28;20043;-47
2021/11/23 04:19:58;;;;;;;1.42;0.93;;;20.80;44.50;;;24.28;30.39;102196.16;5094570;28;20399;-48
2021/11/23 04:22:25;;;;;;;1.50;1.02;;;20.80;44.40;;;24.28;30.04;102190.81;5094642;28;20044;-46
2021/11/23 04:24:51;;;;;;;1.13;0.98;;;20.80;44.40;;;24.26;30.09;102187.38;5094526;28;20093;-48
2021/11/23 04:27:17;;;;;;;0.98;0.80;;;20.80;44.40;;;24.29;30.28;102192.56;5094771;28;20043;-46
2021/11/23 04:29:42;;;;;;;1.60;1.20;;;20.80;44.40;;;24.33;30.22;102201.25;5094424;28;20044;-47
2021/11/23 04:32:08;;;;;;;1.27;1.15;;;20.80;44.40;;;24.29;30.09;102199.69;5094359;28;20505;-46
2021/11/23 04:34:34;;;;;;;1.00;0.90;;;20.80;44.40;;;24.31;30.24;102222.72;5094406;28;20040;-47
2021/11/23 04:37:00;;;;;;;1.42;1.00;;;20.80;44.40;;;24.37;30.07;102229.53;5094089;28;20484;-45
2021/11/23 04:39:26;;;;;;;1.13;1.02;;;20.80;44.40;;;24.32;30.14;102211.06;5094299;28;20055;-45
2021/11/23 04:41:52;;;;;;;1.00;0.90;;;20.80;44.40;;;24.29;30.05;102213.94;5094212;28;20078;-46
2021/11/23 04:44:18;;;;;;;1.00;0.88;;;20.80;44.40;;;24.35;30.15;102229.63;5094486;28;20051;-46
2021/11/23 04:46:43;;;;;;;1.23;1.00;;;20.80;44.40;;;24.36;30.03;102228.69;5093727;28;20147;-45
2021/11/23 04:49:09;;;;;;;1.33;1.20;;;20.80;44.40;;;24.36;30.11;102231.34;5094084;28;20044;-44
2021/11/23 04:51:36;;;;;;;1.40;1.10;;;20.80;44.40;;;24.39;30.16;102227.63;5075878;28;20059;-45
2021/11/23 04:54:02;;;;;;;0.88;0.82;;;20.80;44.40;;;24.39;29.97;102231.19;5093912;28;20135;-47
2021/11/23 04:56:28;;;;;;;1.30;1.00;;;20.80;44.40;;;24.39;30.17;102232.97;5093057;28;20055;-44
2021/11/23 04:58:55;;;;;;;1.83;1.40;;;20.80;45.00;;;24.37;29.89;102229.53;5093840;28;20048;-47
2021/11/23 05:01:21;;;;;;;1.13;0.98;;;20.80;44.40;;;24.37;30.13;102234.88;5093894;28;20051;-50
2021/11/23 05:03:47;;;;;;;1.17;1.05;;;20.80;44.40;;;24.38;30.10;102240.16;5093799;28;20067;-46
2021/11/23 05:06:13;;;;;;;1.40;1.10;;;20.80;44.40;;;24.39;30.04;102239.22;5093751;28;20048;-49
2021/11/23 05:08:39;;;;;;;1.65;1.02;;;20.80;44.40;;;24.37;30.17;102235.75;5093854;28;20044;-48
2021/11/23 05:11:05;;;;;;;1.33;1.00;;;20.80;44.40;;;24.41;29.96;102244.47;5093674;28;20097;-50
2021/11/23 05:13:31;;;;;;;2.05;1.10;;;20.80;44.40;;;24.40;30.05;102245.41;5094038;28;20483;-48
2021/11/23 05:15:57;;;;;;;0.88;0.85;;;20.80;44.40;;;24.38;30.08;102237.47;5093728;28;20083;-47
2021/11/23 05:18:23;;;;;;;1.17;0.98;;;20.80;44.40;;;24.39;30.02;102241.00;5093564;28;20071;-47
2021/11/23 05:20:51;;;;;;;0.80;0.80;;;20.80;44.40;;;24.39;29.95;102232.97;5093975;28;20063;-47
2021/11/23 05:23:17;;;;;;;0.98;0.98;;;20.80;44.40;;;24.39;29.97;102235.66;5074198;28;20048;-50
2021/11/23 05:25:42;;;;;;;1.13;0.93;;;20.80;44.40;;;24.40;30.15;102245.41;5093993;28;20051;-48
2021/11/23 05:28:08;;;;;;;1.02;0.90;;;20.80;44.50;;;24.41;29.90;102233.78;5093537;28;20487;-47
2021/11/23 05:30:35;;;;;;;1.00;1.00;;;20.80;44.40;;;24.39;30.10;102223.16;5093338;28;20056;-45
2021/11/23 05:33:01;;;;;;;1.25;1.13;;;20.80;44.40;;;24.40;30.09;102235.56;5093525;28;20105;-45
2021/11/23 05:35:26;;;;;;;1.25;0.95;;;20.80;44.50;;;24.38;29.85;102241.97;5093261;28;20060;-45
2021/11/23 05:37:52;;;;;;;1.35;1.10;;;20.80;44.50;;;24.37;30.00;102235.75;5093470;28;20048;-48
2021/11/23 05:40:18;;;;;;;1.48;1.17;;;20.80;44.50;;;24.37;29.96;102241.13;5093313;28;20044;-44
2021/11/23 05:42:44;;;;;;;0.80;0.80;;;20.80;44.50;;;24.38;29.90;102232.13;5093091;28;20048;-44
2021/11/23 05:45:12;;;;;;;0.85;0.85;;;20.80;44.50;;;24.40;30.02;102240.91;5093231;28;20143;-47
2021/11/23 05:47:40;;;;;;;1.00;0.90;;;20.80;44.50;;;24.39;30.06;102231.19;5093127;28;20093;-46
2021/11/23 05:50:07;;;;;;;1.30;1.00;;;20.80;44.50;;;24.38;30.09;102232.13;5093052;28;20055;-48
2021/11/23 05:52:33;;;;;;;0.77;0.77;;;20.80;44.40;;;24.39;30.02;102238.31;5093180;28;20087;-44
2021/11/23 05:54:59;;;;;;;1.23;0.95;;;20.80;44.50;;;24.40;29.87;102240.91;5093138;28;20079;-46
2021/11/23 05:57:24;;;;;;;1.05;0.95;;;20.80;44.50;;;24.38;29.97;102217.91;5092906;28;20044;-44
2021/11/23 05:59:50;;;;;;;0.88;0.82;;;20.80;44.50;;;24.38;30.18;102224.09;5093351;28;20040;-47
2021/11/23 06:02:16;;;;;;;1.05;0.95;;;20.80;44.60;;;24.41;29.95;102236.47;5092890;28;20428;-45
2021/11/23 06:04:42;;;;;;;1.70;1.17;;;20.80;44.50;;;24.38;29.96;102229.44;5093157;28;20496;-45
2021/11/23 06:07:08;;;;;;;1.10;1.00;;;20.80;44.50;;;24.39;29.92;102236.53;5092375;28;20447;-46
2021/11/23 06:09:34;;;;;;;1.25;1.00;;;20.80;44.50;;;24.37;30.02;102243.78;5092247;28;20072;-46
2021/11/23 06:12:00;;;;;;;1.30;0.82;;;20.70;44.50;;;24.36;30.07;102241.19;5092839;28;20083;-45
2021/11/23 06:14:25;;;;;;;1.50;1.00;;;20.80;44.50;;;24.39;30.13;102241.88;5093346;28;20109;-45
2021/11/23 06:16:51;;;;;;;1.45;1.10;;;20.80;44.50;;;24.38;30.02;102242.81;5092721;28;20047;-49
2021/11/23 06:19:17;;;;;;;1.10;1.00;;;20.70;44.50;;;24.37;30.18;102238.44;5092561;28;20066;-50
2021/11/23 06:21:43;;;;;;;0.93;0.90;;;20.70;44.50;;;24.37;30.16;102243.78;5092902;28;20040;-45
2021/11/23 06:24:11;;;;;;;1.13;0.80;;;20.80;44.80;;;24.39;30.15;102251.69;5074523;28;20093;-45
2021/11/23 06:26:36;;;;;;;1.27;1.00;;;20.70;44.50;;;24.40;30.20;102256.09;5092845;28;20044;-49
2021/11/23 06:29:04;;;;;;;1.65;1.02;;;20.70;44.50;;;24.38;29.95;102258.00;5092581;28;20059;-47
2021/11/23 06:31:30;;;;;;;0.80;0.80;;;20.80;44.50;;;24.39;30.19;102257.91;5092595;28;20052;-48
2021/11/23 06:33:57;;;;;;;1.13;1.02;;;20.80;44.50;;;24.39;30.01;102263.28;5092875;28;20040;-46
2021/11/23 06:36:23;;;;;;;2.05;1.13;;;20.80;44.50;;;24.39;30.17;102259.72;5092421;28;20423;-45
2021/11/23 06:38:51;;;;;;;1.65;1.30;;;20.80;44.80;;;24.37;30.03;102261.63;5092452;28;20094;-46
2021/11/23 06:41:18;;;;;;;4.60;1.35;;;20.80;44.80;;;24.36;30.13;102268.78;5092409;28;20052;-48
2021/11/23 06:43:44;;;;;;;1.63;0.95;;;20.80;45.30;;;24.40;29.99;102283.69;5092366;28;20040;-46
2021/11/23 06:46:10;;;;;;;3.03;1.17;;;20.80;44.70;;;24.40;30.20;102286.38;5092519;28;20047;-49
2021/11/23 06:48:36;;;;;;;2.03;0.85;;;20.80;44.70;;;24.38;30.06;102290.09;5092367;28;20434;-48
2021/11/23 06:51:02;;;;;;;1.13;1.02;;;20.80;44.80;;;24.38;30.17;102287.41;5092357;28;20049;-47
2021/11/23 06:53:28;;;;;;;1.15;1.00;;;20.80;44.70;;;24.41;30.20;102281.91;5092360;28;20056;-46
2021/11/23 06:55:54;;;;;;;1.77;1.00;;;20.80;44.70;;;24.40;30.11;102273.00;5092177;28;20044;-46
2021/11/23 06:58:21;;;;;;;1.10;0.90;;;20.80;44.70;;;24.38;30.28;102280.25;5092180;28;20097;-46
2021/11/23 07:00:47;;;;;;;1.42;0.80;;;20.80;44.70;;;24.39;30.15;102281.97;5092289;28;20044;-47
2021/11/23 07:03:13;;;;;;;1.00;0.85;;;20.80;44.70;;;24.40;30.07;102282.84;5091837;28;20059;-51
2021/11/23 07:05:39;;;;;;;0.90;0.82;;;20.80;44.70;;;24.39;30.18;102284.66;5092115;28;20446;-45
2021/11/23 07:08:05;;;;;;;2.25;0.90;;;20.80;44.60;;;24.36;30.25;102287.50;5072489;28;20058;-47
2021/11/23 07:10:31;;;;;;;1.25;1.08;;;20.80;44.60;;;24.35;30.14;102285.75;5091936;28;20105;-46
2021/11/23 07:12:58;;;;;;;2.03;1.00;;;20.80;44.60;;;24.38;30.20;102293.59;5092029;28;20094;-46
2021/11/23 07:15:25;;;;;;;1.05;1.00;;;20.80;44.50;;;24.38;30.20;102290.94;5092487;28;20048;-50
2021/11/23 07:17:51;;;;;;;1.45;1.00;;;20.80;44.50;;;24.40;30.15;102290.84;5091888;28;20063;-45
2021/11/23 07:20:17;;;;;;;0.80;0.80;;;20.80;44.50;;;24.42;30.03;102302.31;5076284;28;20036;-48
2021/11/23 07:22:43;;;;;;;1.17;0.90;;;20.80;44.50;;;24.40;29.97;102291.72;5095296;28;20056;-46
2021/11/23 07:25:10;;;;;;;0.90;0.80;;;20.80;44.50;;;24.40;29.99;102306.91;5095661;28;20504;-47
2021/11/23 07:27:36;;;;;;;1.13;1.02;;;20.80;44.50;;;24.42;29.97;102300.53;5095383;28;20055;-46
2021/11/23 07:30:03;;;;;;;0.70;0.70;;;20.80;44.50;;;24.42;30.05;102300.53;5060034;28;20043;-47
2021/11/23 07:32:29;;;;;;;1.00;0.90;;;20.80;44.40;;;24.43;29.94;102304.06;5095135;28;20534;-50
2021/11/23 07:34:54;;;;;;;0.95;0.80;;;20.80;44.40;;;24.44;30.06;102307.59;5095440;28;20051;-46
2021/11/23 07:37:20;;;;;;;3.42;1.05;;;20.80;44.50;;;24.39;30.13;102311.41;5095061;28;20047;-50
2021/11/23 07:39:47;;;;;;;1.15;0.88;;;20.80;44.50;;;24.44;30.02;102310.25;5095023;28;20483;-46
2021/11/23 07:42:13;;;;;;;1.25;0.90;;;20.80;44.50;;;24.39;30.01;102308.72;5095258;28;20383;-47
2021/11/23 07:44:39;;;;;;;1.08;0.80;;;20.80;44.40;;;24.42;29.99;102318.38;5095115;28;20044;-48
2021/11/23 07:47:05;;;;;;;1.15;1.05;;;20.90;44.50;;;24.47;29.92;102320.78;5077338;28;20047;-52
2021/11/23 07:49:31;;;;;;;1.00;0.85;;;20.90;44.40;;;24.47;29.95;102321.66;5095181;28;20495;-46
2021/11/23 07:51:58;;;;;;;1.55;0.90;;;20.90;44.40;;;24.45;30.08;102314.69;5094862;28;20079;-46
2021/11/23 07:54:24;;;;;;;1.65;1.05;;;20.90;44.40;;;24.46;30.01;102313.72;5094849;28;20086;-48
2021/11/23 07:56:50;;;;;;;1.13;0.80;;;20.90;44.40;;;24.50;29.82;102323.31;5094908;28;20072;-48
2021/11/23 07:59:16;;;;;;;0.90;0.90;;;20.90;44.30;;;24.47;30.12;102321.66;5076919;28;20051;-49
2021/11/23 08:01:42;;;;;;;0.90;0.75;;;20.90;44.30;;;24.48;29.84;102325.22;5094921;28;20062;-52
2021/11/23 08:04:07;;;;;;;1.02;0.90;;;20.90;44.30;;;24.48;29.81;102318.03;5094720;28;20055;-48
2021/11/23 08:06:33;;;;;;;1.00;0.90;;;20.90;44.20;;;24.51;29.95;102325.06;5094564;28;20097;-48
2021/11/23 08:08:59;;;;;;;1.33;1.20;;;21.00;44.20;;;24.50;30.01;102331.34;5094830;28;20051;-51
2021/11/23 08:11:25;;;;;;;0.73;0.70;;;21.00;44.20;;;24.52;29.91;102330.28;5094718;28;20111;-47
2021/11/23 08:13:51;;;;;;;1.50;1.08;;;21.00;44.20;;;24.55;29.86;102329.31;5094882;28;20071;-51
2021/11/23 08:16:17;;;;;;;1.55;1.00;;;21.00;44.20;;;24.51;29.95;102323.22;5094391;28;20091;-49
2021/11/23 08:18:45;;;;;;;1.45;1.10;;;21.00;44.20;;;24.54;29.97;102331.09;5094563;28;20058;-49
2021/11/23 08:21:12;;;;;;;0.70;0.70;;;21.00;44.10;;;24.52;29.98;102330.28;5094450;28;20079;-48
2021/11/23 08:23:38;;;;;;;1.17;0.98;;;21.00;44.20;;;24.56;29.88;102342.59;5094260;28;20079;-52
2021/11/23 08:26:04;;;;;;;0.75;0.75;;;21.00;44.10;;;24.57;29.87;102343.44;5094301;28;20500;-49
2021/11/23 08:28:31;;;;;;;1.08;0.85;;;21.00;44.10;;;24.55;29.95;102337.31;5093949;28;20445;-46
2021/11/23 08:30:58;;;;;;;1.13;1.00;;;21.00;44.20;;;24.56;29.94;102341.75;5093736;28;20048;-48
2021/11/23 08:33:25;;;;;;;1.40;0.80;;;21.00;44.20;;;24.56;29.84;102337.25;5094212;28;20058;-52
2021/11/23 08:35:51;;;;;;;0.98;0.80;;;21.00;44.20;;;24.55;30.05;102342.69;5093928;28;20142;-49
2021/11/23 08:38:17;;;;;;;1.10;1.00;;;21.00;44.20;;;24.54;29.86;102339.13;5093962;28;20094;-50
2021/11/23 08:40:43;;;;;;;1.00;0.90;;;21.00;44.70;;;24.57;29.96;102343.44;5093918;28;20052;-49
2021/11/23 08:43:10;;;;;;;1.30;0.68;;;21.00;44.20;;;24.58;29.91;102342.50;5094142;28;20135;-49
2021/11/23 08:45:37;;;;;;;0.82;0.80;;;21.00;44.10;;;24.58;29.93;102353.22;5093839;28;20116;-47
2021/11/23 08:48:03;;;;;;;1.20;0.85;;;21.00;44.10;;;24.59;29.80;102344.22;5093739;28;20438;-46
2021/11/23 08:50:30;;;;;;;2.45;0.90;;;21.00;44.10;;;24.60;29.98;102345.97;5093903;28;20048;-48
2021/11/23 08:52:59;;;;;;;1.00;0.90;;;21.00;44.10;;;24.60;29.74;102349.50;5093837;28;20487;-49
2021/11/23 08:55:26;;;;;;;1.25;1.05;;;21.00;44.10;;;24.57;30.03;102344.34;5093840;28;20047;-47
2021/11/23 08:57:53;;;;;;;0.70;0.70;;;21.00;44.00;;;24.57;29.95;102339.00;5093732;28;20135;-47
2021/11/23 09:00:20;;;;;;;1.00;0.90;;;21.00;44.00;;;24.60;29.85;102345.97;5093826;28;20455;-46
2021/11/23 09:02:53;;;;;;;0.70;0.70;;;21.10;44.10;;;24.61;30.01;102347.69;5093665;28;20040;-45
2021/11/23 09:05:22;;;;;;;1.55;1.17;;;21.10;44.10;;;24.62;29.82;102346.75;5075989;28;20176;-50
2021/11/23 09:07:49;;;;;;;1.10;0.75;;;21.10;44.00;;;24.64;29.79;102346.66;5093743;28;20082;-46
2021/11/23 09:10:20;;;;;;;1.20;0.55;;;21.10;44.00;;;24.63;29.74;102350.28;5093699;28;20056;-46
2021/11/23 09:12:49;;;;;;;0.98;0.88;;;21.10;43.90;;;24.67;29.81;102351.84;5093667;28;20086;-46
2021/11/23 09:15:15;;;;;;;0.80;0.80;;;21.10;43.90;;;24.68;29.89;102354.44;5093661;28;20488;-46
2021/11/23 09:17:43;;;;;;;1.33;1.23;;;21.20;43.90;;;24.68;29.81;102357.13;5075303;28;20055;-46
2021/11/23 09:20:12;;;;;;;1.13;0.77;;;21.10;43.90;;;24.65;29.72;102356.41;5058605;28;20047;-46
2021/11/23 09:22:40;;;;;;;1.10;1.00;;;21.10;43.90;;;24.63;29.73;102353.81;5093140;28;20166;-46
2021/11/23 09:25:08;;;;;;;1.15;0.85;;;21.10;44.00;;;24.68;29.88;102369.63;5093874;28;20048;-48
2021/11/23 09:27:34;;;;;;;1.35;1.10;;;21.10;44.00;;;24.63;29.70;102364.53;5093296;28;20132;-47
2021/11/23 09:30:01;;;;;;;1.95;1.00;;;21.10;44.10;;;24.65;29.69;102365.28;5093825;28;20044;-46
2021/11/23 09:32:27;;;;;;;0.80;0.80;;;21.10;44.10;;;24.67;29.75;102370.56;5093794;28;20048;-45
2021/11/23 09:34:56;;;;;;;1.35;1.00;;;21.10;44.10;;;24.68;29.77;102380.34;5093287;28;20054;-47
2021/11/23 09:37:22;;;;;;;2.67;0.80;;;21.10;44.00;;;24.69;29.72;102374.00;5093173;28;20055;-49
2021/11/23 09:39:48;;;;;;;1.30;0.70;;;21.10;44.00;;;24.68;29.84;102370.47;5093220;28;20052;-47
2021/11/23 09:42:15;;;;;;;0.80;0.77;;;21.10;44.00;;;24.69;29.63;102374.00;5092824;28;20124;-46
2021/11/23 09:44:44;;;;;;;1.63;1.02;;;21.10;44.00;;;24.69;29.63;102374.91;5093143;28;20563;-47
2021/11/23 09:47:12;;;;;;;1.15;0.73;;;21.20;44.00;;;24.71;29.78;102378.34;5093099;28;20048;-45
2021/11/23 09:49:38;;;;;;;1.73;1.17;;;21.10;43.90;;;24.73;29.63;102383.63;5093318;28;20048;-46
2021/11/23 09:52:04;;;;;;;0.70;0.70;;;21.20;43.90;;;24.71;29.72;102381.03;5092880;28;20094;-47
2021/11/23 09:54:30;;;;;;;2.78;0.98;;;21.10;43.90;;;24.70;29.66;102371.25;5092981;28;20605;-50
2021/11/23 09:56:56;;;;;;;1.00;0.93;;;21.20;44.50;;;24.72;29.85;102377.38;5093131;28;20078;-45
2021/11/23 09:59:22;;;;;;;1.30;0.70;;;21.20;43.90;;;24.71;29.61;102366.78;5092735;28;20048;-46
2021/11/23 10:01:54;;;;;;;0.95;0.90;;;21.20;43.90;;;24.72;29.61;102372.03;5092558;28;20055;-47
2021/11/23 10:04:24;;;;;;;0.80;0.65;;;21.20;43.90;;;24.73;29.76;102368.41;5092730;28;20059;-47
2021/11/23 10:06:57;;;;;;;1.90;0.70;;;21.20;43.90;;;24.72;29.70;102369.34;5092995;28;20122;-47
2021/11/23 10:09:44;;;;;;;0.77;0.77;;;21.20;43.90;;;24.73;29.88;102368.41;5074620;28;20123;-45